sensor_id;sensor_type;location;lat;lon;timestamp;P1;durP1;ratioP1;P2;durP2;ratioP2
54368;SDS011;40266;52.434;17.056;2023-03-31T00:01:33;19.10;;;8.30;;
54368;SDS011;40266;52.434;17.056;2023-03-31T00:04:18;16.40;;;8.10;;
54368;SDS011;40266;52.434;17.056;2023-03-31T00:07:06;15.70;;;8.30;;
54368;SDS011;40266;52.434;17.056;2023-03-31T00:09:51;18.60;;;9.60;;
54368;SDS011;40266;52.434;17.056;2023-03-31T00:12:58;14.60;;;8.70;;
54368;SDS011;40266;52.434;17.056;2023-03-31T00:15:42;11.70;;;7.50;;
54368;SDS011;40266;52.434;17.056;2023-03-31T00:18:27;18.50;;;7.30;;
54368;SDS011;40266;52.434;17.056;2023-03-31T00:21:12;11.50;;;6.80;;
54368;SDS011;40266;52.434;17.056;2023-03-31T00:24:09;15.70;;;7.70;;
54368;SDS011;40266;52.434;17.056;2023-03-31T00:26:53;15.50;;;7.60;;
54368;SDS011;40266;52.434;17.056;2023-03-31T00:29:37;15.60;;;7.70;;
54368;SDS011;40266;52.434;17.056;2023-03-31T00:32:23;12.70;;;7.50;;
54368;SDS011;40266;52.434;17.056;2023-03-31T00:35:07;15.90;;;7.60;;
54368;SDS011;40266;52.434;17.056;2023-03-31T00:37:50;14.20;;;7.80;;
54368;SDS011;40266;52.434;17.056;2023-03-31T00:40:35;15.30;;;8.40;;
54368;SDS011;40266;52.434;17.056;2023-03-31T00:43:27;16.90;;;9.10;;
54368;SDS011;40266;52.434;17.056;2023-03-31T00:46:18;14.80;;;8.10;;
54368;SDS011;40266;52.434;17.056;2023-03-31T00:49:09;16.10;;;8.10;;
54368;SDS011;40266;52.434;17.056;2023-03-31T00:52:03;13.20;;;7.20;;
54368;SDS011;40266;52.434;17.056;2023-03-31T00:55:04;21.40;;;8.30;;
54368;SDS011;40266;52.434;17.056;2023-03-31T00:57:52;19.00;;;8.90;;
54368;SDS011;40266;52.434;17.056;2023-03-31T01:00:36;17.90;;;7.70;;
54368;SDS011;40266;52.434;17.056;2023-03-31T01:03:21;15.10;;;8.40;;
54368;SDS011;40266;52.434;17.056;2023-03-31T01:06:11;17.10;;;8.30;;
54368;SDS011;40266;52.434;17.056;2023-03-31T01:09:19;13.90;;;8.20;;
54368;SDS011;40266;52.434;17.056;2023-03-31T01:12:09;17.40;;;8.40;;
54368;SDS011;40266;52.434;17.056;2023-03-31T01:15:06;16.90;;;8.70;;
54368;SDS011;40266;52.434;17.056;2023-03-31T01:17:55;18.60;;;9.30;;
54368;SDS011;40266;52.434;17.056;2023-03-31T01:52:06;14.40;;;7.60;;
54368;SDS011;40266;52.434;17.056;2023-03-31T01:54:55;15.70;;;7.50;;
54368;SDS011;40266;52.434;17.056;2023-03-31T02:03:32;17.70;;;7.80;;
54368;SDS011;40266;52.434;17.056;2023-03-31T02:06:21;17.30;;;8.10;;
54368;SDS011;40266;52.434;17.056;2023-03-31T02:09:09;16.40;;;8.20;;
54368;SDS011;40266;52.434;17.056;2023-03-31T02:11:56;14.60;;;8.20;;
54368;SDS011;40266;52.434;17.056;2023-03-31T02:14:43;19.20;;;8.20;;
54368;SDS011;40266;52.434;17.056;2023-03-31T02:17:29;20.50;;;8.60;;
54368;SDS011;40266;52.434;17.056;2023-03-31T02:20:14;16.00;;;8.40;;
54368;SDS011;40266;52.434;17.056;2023-03-31T02:23:00;17.40;;;8.80;;
54368;SDS011;40266;52.434;17.056;2023-03-31T02:25:48;13.80;;;8.50;;
54368;SDS011;40266;52.434;17.056;2023-03-31T02:28:35;15.70;;;8.20;;
54368;SDS011;40266;52.434;17.056;2023-03-31T02:34:49;17.20;;;7.40;;
54368;SDS011;40266;52.434;17.056;2023-03-31T02:37:32;17.40;;;7.20;;
54368;SDS011;40266;52.434;17.056;2023-03-31T02:40:17;15.50;;;7.10;;
54368;SDS011;40266;52.434;17.056;2023-03-31T02:43:03;17.10;;;9.00;;
54368;SDS011;40266;52.434;17.056;2023-03-31T02:45:47;15.30;;;7.40;;
54368;SDS011;40266;52.434;17.056;2023-03-31T02:48:34;14.10;;;7.00;;
54368;SDS011;40266;52.434;17.056;2023-03-31T03:00:45;13.90;;;6.20;;
54368;SDS011;40266;52.434;17.056;2023-03-31T03:04:22;11.60;;;6.00;;
54368;SDS011;40266;52.434;17.056;2023-03-31T03:09:53;11.20;;;5.60;;
54368;SDS011;40266;52.434;17.056;2023-03-31T03:15:36;15.90;;;5.90;;
54368;SDS011;40266;52.434;17.056;2023-03-31T03:18:26;17.20;;;5.70;;
54368;SDS011;40266;52.434;17.056;2023-03-31T03:21:09;16.10;;;7.00;;
54368;SDS011;40266;52.434;17.056;2023-03-31T03:23:52;14.00;;;5.40;;
54368;SDS011;40266;52.434;17.056;2023-03-31T03:26:36;10.80;;;5.70;;
54368;SDS011;40266;52.434;17.056;2023-03-31T03:29:19;10.30;;;5.00;;
54368;SDS011;40266;52.434;17.056;2023-03-31T03:32:02;12.00;;;6.00;;
54368;SDS011;40266;52.434;17.056;2023-03-31T03:34:45;12.30;;;5.40;;
54368;SDS011;40266;52.434;17.056;2023-03-31T03:37:28;11.50;;;5.00;;
54368;SDS011;40266;52.434;17.056;2023-03-31T03:40:12;12.10;;;5.50;;
54368;SDS011;40266;52.434;17.056;2023-03-31T03:42:55;11.00;;;5.30;;
54368;SDS011;40266;52.434;17.056;2023-03-31T03:45:38;9.10;;;5.00;;
54368;SDS011;40266;52.434;17.056;2023-03-31T03:48:21;10.20;;;4.80;;
54368;SDS011;40266;52.434;17.056;2023-03-31T03:51:04;8.70;;;4.60;;
54368;SDS011;40266;52.434;17.056;2023-03-31T03:53:48;13.10;;;5.50;;
54368;SDS011;40266;52.434;17.056;2023-03-31T03:56:31;10.50;;;5.20;;
54368;SDS011;40266;52.434;17.056;2023-03-31T03:59:14;7.50;;;4.70;;
54368;SDS011;40266;52.434;17.056;2023-03-31T04:01:57;17.30;;;5.90;;
54368;SDS011;40266;52.434;17.056;2023-03-31T04:04:40;9.00;;;4.80;;
54368;SDS011;40266;52.434;17.056;2023-03-31T04:07:23;12.50;;;5.30;;
54368;SDS011;40266;52.434;17.056;2023-03-31T04:10:06;9.40;;;4.90;;
54368;SDS011;40266;52.434;17.056;2023-03-31T04:12:49;11.30;;;4.80;;
54368;SDS011;40266;52.434;17.056;2023-03-31T04:15:32;14.10;;;5.30;;
54368;SDS011;40266;52.434;17.056;2023-03-31T04:18:15;11.50;;;5.00;;
54368;SDS011;40266;52.434;17.056;2023-03-31T04:21:10;9.10;;;4.70;;
54368;SDS011;40266;52.434;17.056;2023-03-31T04:24:04;11.30;;;4.70;;
54368;SDS011;40266;52.434;17.056;2023-03-31T04:26:47;12.50;;;4.90;;
54368;SDS011;40266;52.434;17.056;2023-03-31T04:29:32;12.00;;;4.60;;
54368;SDS011;40266;52.434;17.056;2023-03-31T04:32:15;10.60;;;4.70;;
54368;SDS011;40266;52.434;17.056;2023-03-31T04:35:03;13.00;;;5.80;;
54368;SDS011;40266;52.434;17.056;2023-03-31T04:37:47;11.00;;;4.60;;
54368;SDS011;40266;52.434;17.056;2023-03-31T04:40:30;15.30;;;4.80;;
54368;SDS011;40266;52.434;17.056;2023-03-31T04:43:13;10.50;;;4.60;;
54368;SDS011;40266;52.434;17.056;2023-03-31T04:45:57;12.00;;;5.50;;
54368;SDS011;40266;52.434;17.056;2023-03-31T04:48:40;12.40;;;4.80;;
54368;SDS011;40266;52.434;17.056;2023-03-31T04:51:23;10.80;;;5.30;;
54368;SDS011;40266;52.434;17.056;2023-03-31T04:54:07;11.50;;;4.70;;
54368;SDS011;40266;52.434;17.056;2023-03-31T04:56:50;12.00;;;4.50;;
54368;SDS011;40266;52.434;17.056;2023-03-31T04:59:33;9.10;;;4.60;;
54368;SDS011;40266;52.434;17.056;2023-03-31T05:02:16;12.40;;;4.40;;
54368;SDS011;40266;52.434;17.056;2023-03-31T05:05:07;8.70;;;4.60;;
54368;SDS011;40266;52.434;17.056;2023-03-31T05:07:53;10.60;;;4.20;;
54368;SDS011;40266;52.434;17.056;2023-03-31T05:10:37;9.40;;;4.30;;
54368;SDS011;40266;52.434;17.056;2023-03-31T05:13:20;14.90;;;4.20;;
54368;SDS011;40266;52.434;17.056;2023-03-31T05:16:06;15.10;;;4.70;;
54368;SDS011;40266;52.434;17.056;2023-03-31T05:19:04;8.20;;;4.10;;
54368;SDS011;40266;52.434;17.056;2023-03-31T05:21:47;8.20;;;4.50;;
54368;SDS011;40266;52.434;17.056;2023-03-31T05:24:31;9.80;;;4.00;;
54368;SDS011;40266;52.434;17.056;2023-03-31T05:27:16;8.00;;;4.00;;
54368;SDS011;40266;52.434;17.056;2023-03-31T05:30:02;10.30;;;4.30;;
54368;SDS011;40266;52.434;17.056;2023-03-31T05:32:56;10.40;;;3.90;;
54368;SDS011;40266;52.434;17.056;2023-03-31T05:35:43;12.70;;;4.30;;
54368;SDS011;40266;52.434;17.056;2023-03-31T05:38:27;6.10;;;3.60;;
54368;SDS011;40266;52.434;17.056;2023-03-31T05:41:16;9.60;;;3.70;;
54368;SDS011;40266;52.434;17.056;2023-03-31T05:43:59;8.00;;;3.90;;
54368;SDS011;40266;52.434;17.056;2023-03-31T05:50:02;9.50;;;4.40;;
54368;SDS011;40266;52.434;17.056;2023-03-31T05:53:06;7.80;;;3.80;;
54368;SDS011;40266;52.434;17.056;2023-03-31T05:59:31;12.00;;;4.20;;
54368;SDS011;40266;52.434;17.056;2023-03-31T06:02:26;10.50;;;4.00;;
54368;SDS011;40266;52.434;17.056;2023-03-31T06:05:18;12.60;;;4.40;;
54368;SDS011;40266;52.434;17.056;2023-03-31T06:08:14;11.40;;;5.40;;
54368;SDS011;40266;52.434;17.056;2023-03-31T06:11:04;7.50;;;3.40;;
54368;SDS011;40266;52.434;17.056;2023-03-31T06:13:56;9.60;;;3.90;;
54368;SDS011;40266;52.434;17.056;2023-03-31T06:16:49;11.00;;;3.90;;
54368;SDS011;40266;52.434;17.056;2023-03-31T06:19:39;9.20;;;3.80;;
54368;SDS011;40266;52.434;17.056;2023-03-31T06:22:22;7.40;;;3.90;;
54368;SDS011;40266;52.434;17.056;2023-03-31T06:25:05;9.10;;;3.80;;
54368;SDS011;40266;52.434;17.056;2023-03-31T06:27:52;15.80;;;4.00;;
54368;SDS011;40266;52.434;17.056;2023-03-31T06:30:35;11.00;;;4.00;;
54368;SDS011;40266;52.434;17.056;2023-03-31T06:33:18;7.10;;;3.60;;
54368;SDS011;40266;52.434;17.056;2023-03-31T06:36:02;11.50;;;3.70;;
54368;SDS011;40266;52.434;17.056;2023-03-31T06:38:47;11.50;;;3.40;;
54368;SDS011;40266;52.434;17.056;2023-03-31T06:41:31;11.40;;;3.70;;
54368;SDS011;40266;52.434;17.056;2023-03-31T06:44:14;10.40;;;3.90;;
54368;SDS011;40266;52.434;17.056;2023-03-31T06:46:58;7.60;;;3.70;;
54368;SDS011;40266;52.434;17.056;2023-03-31T06:49:42;9.00;;;3.90;;
54368;SDS011;40266;52.434;17.056;2023-03-31T06:52:27;8.50;;;3.30;;
54368;SDS011;40266;52.434;17.056;2023-03-31T06:55:10;9.90;;;3.60;;
54368;SDS011;40266;52.434;17.056;2023-03-31T06:57:55;9.20;;;3.60;;
54368;SDS011;40266;52.434;17.056;2023-03-31T07:00:40;10.10;;;3.10;;
54368;SDS011;40266;52.434;17.056;2023-03-31T07:03:23;6.60;;;3.20;;
54368;SDS011;40266;52.434;17.056;2023-03-31T07:06:07;8.90;;;3.40;;
54368;SDS011;40266;52.434;17.056;2023-03-31T07:08:50;10.00;;;3.40;;
54368;SDS011;40266;52.434;17.056;2023-03-31T07:11:37;7.90;;;3.20;;
54368;SDS011;40266;52.434;17.056;2023-03-31T07:14:23;9.60;;;3.10;;
54368;SDS011;40266;52.434;17.056;2023-03-31T07:17:07;10.40;;;3.20;;
54368;SDS011;40266;52.434;17.056;2023-03-31T07:19:51;9.90;;;3.50;;
54368;SDS011;40266;52.434;17.056;2023-03-31T07:22:37;9.10;;;3.10;;
54368;SDS011;40266;52.434;17.056;2023-03-31T07:25:26;8.50;;;3.60;;
54368;SDS011;40266;52.434;17.056;2023-03-31T07:28:09;7.40;;;3.60;;
54368;SDS011;40266;52.434;17.056;2023-03-31T07:30:52;7.00;;;3.20;;
54368;SDS011;40266;52.434;17.056;2023-03-31T07:33:42;5.70;;;3.30;;
54368;SDS011;40266;52.434;17.056;2023-03-31T07:36:37;11.70;;;3.60;;
54368;SDS011;40266;52.434;17.056;2023-03-31T07:40:00;12.50;;;3.50;;
54368;SDS011;40266;52.434;17.056;2023-03-31T07:43:18;6.30;;;3.00;;
54368;SDS011;40266;52.434;17.056;2023-03-31T07:46:13;10.00;;;3.40;;
54368;SDS011;40266;52.434;17.056;2023-03-31T07:49:19;7.80;;;3.70;;
54368;SDS011;40266;52.434;17.056;2023-03-31T07:52:06;9.10;;;3.10;;
54368;SDS011;40266;52.434;17.056;2023-03-31T07:54:53;11.40;;;4.20;;
54368;SDS011;40266;52.434;17.056;2023-03-31T07:57:36;10.60;;;3.50;;
54368;SDS011;40266;52.434;17.056;2023-03-31T08:00:20;10.60;;;4.00;;
54368;SDS011;40266;52.434;17.056;2023-03-31T08:03:04;7.50;;;3.80;;
54368;SDS011;40266;52.434;17.056;2023-03-31T08:05:51;10.50;;;3.70;;
54368;SDS011;40266;52.434;17.056;2023-03-31T08:08:35;8.00;;;3.20;;
54368;SDS011;40266;52.434;17.056;2023-03-31T08:11:19;11.50;;;4.00;;
54368;SDS011;40266;52.434;17.056;2023-03-31T08:14:03;10.10;;;3.40;;
54368;SDS011;40266;52.434;17.056;2023-03-31T08:16:49;10.90;;;3.30;;
54368;SDS011;40266;52.434;17.056;2023-03-31T08:19:34;8.80;;;3.20;;
54368;SDS011;40266;52.434;17.056;2023-03-31T08:22:17;12.80;;;3.40;;
54368;SDS011;40266;52.434;17.056;2023-03-31T08:25:00;9.50;;;3.40;;
54368;SDS011;40266;52.434;17.056;2023-03-31T08:27:44;12.90;;;3.30;;
54368;SDS011;40266;52.434;17.056;2023-03-31T08:30:28;7.90;;;3.60;;
54368;SDS011;40266;52.434;17.056;2023-03-31T08:33:19;9.40;;;3.70;;
54368;SDS011;40266;52.434;17.056;2023-03-31T08:36:03;9.60;;;3.90;;
54368;SDS011;40266;52.434;17.056;2023-03-31T08:38:50;10.40;;;3.20;;
54368;SDS011;40266;52.434;17.056;2023-03-31T08:47:17;13.20;;;3.60;;
54368;SDS011;40266;52.434;17.056;2023-03-31T08:50:22;7.00;;;3.00;;
54368;SDS011;40266;52.434;17.056;2023-03-31T08:56:01;10.90;;;3.90;;
54368;SDS011;40266;52.434;17.056;2023-03-31T08:58:49;13.30;;;4.10;;
54368;SDS011;40266;52.434;17.056;2023-03-31T09:02:09;7.60;;;3.20;;
54368;SDS011;40266;52.434;17.056;2023-03-31T09:17:26;8.60;;;3.60;;
54368;SDS011;40266;52.434;17.056;2023-03-31T09:20:16;4.80;;;3.00;;
54368;SDS011;40266;52.434;17.056;2023-03-31T09:26:24;11.10;;;3.20;;
54368;SDS011;40266;52.434;17.056;2023-03-31T09:29:56;8.30;;;3.00;;
54368;SDS011;40266;52.434;17.056;2023-03-31T09:32:41;9.80;;;3.40;;
54368;SDS011;40266;52.434;17.056;2023-03-31T09:35:25;15.10;;;3.50;;
54368;SDS011;40266;52.434;17.056;2023-03-31T09:38:12;10.20;;;3.60;;
54368;SDS011;40266;52.434;17.056;2023-03-31T09:40:58;8.30;;;3.40;;
54368;SDS011;40266;52.434;17.056;2023-03-31T09:43:43;13.80;;;3.60;;
54368;SDS011;40266;52.434;17.056;2023-03-31T09:46:34;8.50;;;3.10;;
54368;SDS011;40266;52.434;17.056;2023-03-31T09:49:22;9.60;;;3.00;;
54368;SDS011;40266;52.434;17.056;2023-03-31T09:55:03;11.50;;;2.90;;
54368;SDS011;40266;52.434;17.056;2023-03-31T09:58:14;9.40;;;3.30;;
54368;SDS011;40266;52.434;17.056;2023-03-31T10:00:59;8.60;;;4.10;;
54368;SDS011;40266;52.434;17.056;2023-03-31T10:03:49;11.50;;;4.20;;
54368;SDS011;40266;52.434;17.056;2023-03-31T10:06:38;9.80;;;3.00;;
54368;SDS011;40266;52.434;17.056;2023-03-31T10:09:25;9.40;;;3.20;;
54368;SDS011;40266;52.434;17.056;2023-03-31T10:12:16;7.60;;;2.60;;
54368;SDS011;40266;52.434;17.056;2023-03-31T10:15:40;10.20;;;3.20;;
54368;SDS011;40266;52.434;17.056;2023-03-31T10:18:20;12.20;;;4.30;;
54368;SDS011;40266;52.434;17.056;2023-03-31T10:24:08;11.40;;;3.10;;
54368;SDS011;40266;52.434;17.056;2023-03-31T10:26:55;10.30;;;3.60;;
54368;SDS011;40266;52.434;17.056;2023-03-31T10:29:41;11.10;;;3.50;;
54368;SDS011;40266;52.434;17.056;2023-03-31T10:32:27;8.90;;;2.50;;
54368;SDS011;40266;52.434;17.056;2023-03-31T10:38:33;8.90;;;3.10;;
54368;SDS011;40266;52.434;17.056;2023-03-31T10:41:26;7.80;;;3.10;;
54368;SDS011;40266;52.434;17.056;2023-03-31T10:49:56;10.90;;;3.40;;
54368;SDS011;40266;52.434;17.056;2023-03-31T10:52:44;9.60;;;3.60;;
54368;SDS011;40266;52.434;17.056;2023-03-31T10:55:35;8.40;;;3.60;;
54368;SDS011;40266;52.434;17.056;2023-03-31T10:58:38;11.10;;;3.50;;
54368;SDS011;40266;52.434;17.056;2023-03-31T11:07:47;11.10;;;5.20;;
54368;SDS011;40266;52.434;17.056;2023-03-31T11:23:11;9.40;;;3.20;;
54368;SDS011;40266;52.434;17.056;2023-03-31T11:35:42;6.90;;;2.60;;
54368;SDS011;40266;52.434;17.056;2023-03-31T11:42:02;7.30;;;2.90;;
54368;SDS011;40266;52.434;17.056;2023-03-31T11:44:54;7.40;;;3.00;;
54368;SDS011;40266;52.434;17.056;2023-03-31T11:47:58;7.00;;;2.90;;
54368;SDS011;40266;52.434;17.056;2023-03-31T11:50:49;9.70;;;3.00;;
54368;SDS011;40266;52.434;17.056;2023-03-31T11:53:33;10.70;;;3.20;;
54368;SDS011;40266;52.434;17.056;2023-03-31T11:56:19;9.10;;;2.60;;
54368;SDS011;40266;52.434;17.056;2023-03-31T11:59:04;8.30;;;2.90;;
54368;SDS011;40266;52.434;17.056;2023-03-31T12:04:40;12.50;;;3.40;;
54368;SDS011;40266;52.434;17.056;2023-03-31T12:07:31;9.40;;;3.20;;
54368;SDS011;40266;52.434;17.056;2023-03-31T12:10:37;11.90;;;3.10;;
54368;SDS011;40266;52.434;17.056;2023-03-31T12:19:21;6.50;;;2.90;;
54368;SDS011;40266;52.434;17.056;2023-03-31T12:25:01;10.90;;;3.00;;
54368;SDS011;40266;52.434;17.056;2023-03-31T12:27:44;12.80;;;3.70;;
54368;SDS011;40266;52.434;17.056;2023-03-31T12:30:33;9.50;;;3.90;;
54368;SDS011;40266;52.434;17.056;2023-03-31T12:33:21;14.00;;;4.50;;
54368;SDS011;40266;52.434;17.056;2023-03-31T12:36:26;9.40;;;4.40;;
54368;SDS011;40266;52.434;17.056;2023-03-31T12:45:38;14.10;;;5.20;;
54368;SDS011;40266;52.434;17.056;2023-03-31T12:51:44;13.90;;;4.60;;
54368;SDS011;40266;52.434;17.056;2023-03-31T13:01:21;10.70;;;5.00;;
54368;SDS011;40266;52.434;17.056;2023-03-31T13:04:16;12.50;;;4.50;;
54368;SDS011;40266;52.434;17.056;2023-03-31T13:07:03;9.80;;;3.80;;
54368;SDS011;40266;52.434;17.056;2023-03-31T13:13:04;10.90;;;4.30;;
54368;SDS011;40266;52.434;17.056;2023-03-31T13:18:42;12.20;;;3.90;;
54368;SDS011;40266;52.434;17.056;2023-03-31T13:21:50;12.60;;;4.60;;
54368;SDS011;40266;52.434;17.056;2023-03-31T13:24:35;10.00;;;4.20;;
54368;SDS011;40266;52.434;17.056;2023-03-31T13:27:28;11.20;;;4.40;;
54368;SDS011;40266;52.434;17.056;2023-03-31T14:00:20;10.60;;;3.90;;
54368;SDS011;40266;52.434;17.056;2023-03-31T14:03:18;12.60;;;4.80;;
54368;SDS011;40266;52.434;17.056;2023-03-31T14:06:11;11.70;;;4.00;;
54368;SDS011;40266;52.434;17.056;2023-03-31T14:09:45;9.70;;;4.00;;
54368;SDS011;40266;52.434;17.056;2023-03-31T14:12:30;10.40;;;4.10;;
54368;SDS011;40266;52.434;17.056;2023-03-31T14:15:20;10.50;;;4.20;;
54368;SDS011;40266;52.434;17.056;2023-03-31T14:18:04;10.40;;;4.30;;
54368;SDS011;40266;52.434;17.056;2023-03-31T14:24:04;9.60;;;4.00;;
54368;SDS011;40266;52.434;17.056;2023-03-31T14:39:10;11.70;;;4.90;;
54368;SDS011;40266;52.434;17.056;2023-03-31T14:41:56;14.10;;;4.30;;
54368;SDS011;40266;52.434;17.056;2023-03-31T14:44:47;9.30;;;4.70;;
54368;SDS011;40266;52.434;17.056;2023-03-31T14:47:31;9.90;;;4.80;;
54368;SDS011;40266;52.434;17.056;2023-03-31T14:50:20;11.60;;;4.60;;
54368;SDS011;40266;52.434;17.056;2023-03-31T14:53:03;12.40;;;5.70;;
54368;SDS011;40266;52.434;17.056;2023-03-31T14:56:18;18.70;;;6.90;;
54368;SDS011;40266;52.434;17.056;2023-03-31T14:59:02;9.50;;;4.80;;
54368;SDS011;40266;52.434;17.056;2023-03-31T15:10:37;5.80;;;2.50;;
54368;SDS011;40266;52.434;17.056;2023-03-31T15:14:05;3.90;;;2.40;;
54368;SDS011;40266;52.434;17.056;2023-03-31T15:17:29;4.80;;;2.50;;
54368;SDS011;40266;52.434;17.056;2023-03-31T15:23:54;5.60;;;3.40;;
54368;SDS011;40266;52.434;17.056;2023-03-31T15:27:01;8.00;;;4.10;;
54368;SDS011;40266;52.434;17.056;2023-03-31T15:29:51;8.60;;;4.40;;
54368;SDS011;40266;52.434;17.056;2023-03-31T15:33:50;11.60;;;4.60;;
54368;SDS011;40266;52.434;17.056;2023-03-31T15:36:29;11.40;;;4.10;;
54368;SDS011;40266;52.434;17.056;2023-03-31T15:42:34;13.50;;;5.10;;
54368;SDS011;40266;52.434;17.056;2023-03-31T15:48:24;11.60;;;5.10;;
54368;SDS011;40266;52.434;17.056;2023-03-31T15:54:51;13.00;;;5.80;;
54368;SDS011;40266;52.434;17.056;2023-03-31T16:03:53;16.40;;;7.90;;
54368;SDS011;40266;52.434;17.056;2023-03-31T16:06:49;20.10;;;8.30;;
54368;SDS011;40266;52.434;17.056;2023-03-31T16:13:05;17.90;;;9.00;;
54368;SDS011;40266;52.434;17.056;2023-03-31T16:19:16;22.90;;;9.30;;
54368;SDS011;40266;52.434;17.056;2023-03-31T16:22:38;21.30;;;9.50;;
54368;SDS011;40266;52.434;17.056;2023-03-31T16:26:06;21.50;;;10.60;;
54368;SDS011;40266;52.434;17.056;2023-03-31T16:33:00;21.70;;;11.40;;
54368;SDS011;40266;52.434;17.056;2023-03-31T16:36:11;21.10;;;10.50;;
54368;SDS011;40266;52.434;17.056;2023-03-31T16:38:58;20.80;;;9.80;;
54368;SDS011;40266;52.434;17.056;2023-03-31T16:42:07;21.10;;;10.70;;
54368;SDS011;40266;52.434;17.056;2023-03-31T16:45:02;21.20;;;11.10;;
54368;SDS011;40266;52.434;17.056;2023-03-31T16:48:08;23.00;;;11.10;;
54368;SDS011;40266;52.434;17.056;2023-03-31T16:51:11;22.90;;;11.80;;
54368;SDS011;40266;52.434;17.056;2023-03-31T16:57:52;20.30;;;11.80;;
54368;SDS011;40266;52.434;17.056;2023-03-31T17:11:40;16.40;;;7.70;;
54368;SDS011;40266;52.434;17.056;2023-03-31T17:15:14;18.30;;;8.00;;
54368;SDS011;40266;52.434;17.056;2023-03-31T17:21:33;15.70;;;7.70;;
54368;SDS011;40266;52.434;17.056;2023-03-31T17:24:18;14.90;;;7.20;;
54368;SDS011;40266;52.434;17.056;2023-03-31T17:27:10;12.60;;;6.80;;
54368;SDS011;40266;52.434;17.056;2023-03-31T17:30:16;15.80;;;7.50;;
54368;SDS011;40266;52.434;17.056;2023-03-31T17:33:14;13.50;;;6.70;;
54368;SDS011;40266;52.434;17.056;2023-03-31T17:36:25;14.90;;;8.00;;
54368;SDS011;40266;52.434;17.056;2023-03-31T17:39:28;14.40;;;7.90;;
54368;SDS011;40266;52.434;17.056;2023-03-31T17:42:32;15.00;;;8.40;;
54368;SDS011;40266;52.434;17.056;2023-03-31T17:45:16;16.20;;;9.60;;
54368;SDS011;40266;52.434;17.056;2023-03-31T17:48:31;15.30;;;8.00;;
54368;SDS011;40266;52.434;17.056;2023-03-31T17:51:47;16.30;;;8.90;;
54368;SDS011;40266;52.434;17.056;2023-03-31T17:54:40;15.00;;;8.70;;
54368;SDS011;40266;52.434;17.056;2023-03-31T17:58:19;15.80;;;9.20;;
54368;SDS011;40266;52.434;17.056;2023-03-31T18:01:14;17.50;;;9.80;;
54368;SDS011;40266;52.434;17.056;2023-03-31T18:07:57;14.40;;;7.80;;
54368;SDS011;40266;52.434;17.056;2023-03-31T18:17:47;17.40;;;9.70;;
54368;SDS011;40266;52.434;17.056;2023-03-31T18:21:07;16.00;;;8.90;;
54368;SDS011;40266;52.434;17.056;2023-03-31T18:24:15;21.90;;;10.70;;
54368;SDS011;40266;52.434;17.056;2023-03-31T18:27:04;20.10;;;10.40;;
54368;SDS011;40266;52.434;17.056;2023-03-31T18:36:52;15.60;;;9.80;;
54368;SDS011;40266;52.434;17.056;2023-03-31T18:39:51;18.60;;;10.30;;
54368;SDS011;40266;52.434;17.056;2023-03-31T18:43:17;18.20;;;10.70;;
54368;SDS011;40266;52.434;17.056;2023-03-31T18:46:43;18.20;;;11.00;;
54368;SDS011;40266;52.434;17.056;2023-03-31T18:50:27;19.50;;;10.40;;
54368;SDS011;40266;52.434;17.056;2023-03-31T18:53:25;21.00;;;10.90;;
54368;SDS011;40266;52.434;17.056;2023-03-31T18:56:23;20.10;;;11.20;;
54368;SDS011;40266;52.434;17.056;2023-03-31T19:02:44;21.20;;;11.80;;
54368;SDS011;40266;52.434;17.056;2023-03-31T19:06:12;18.80;;;11.50;;
54368;SDS011;40266;52.434;17.056;2023-03-31T19:09:17;20.30;;;10.80;;
54368;SDS011;40266;52.434;17.056;2023-03-31T19:15:49;21.00;;;11.50;;
54368;SDS011;40266;52.434;17.056;2023-03-31T19:19:11;22.60;;;12.50;;
54368;SDS011;40266;52.434;17.056;2023-03-31T19:22:18;21.70;;;11.40;;
54368;SDS011;40266;52.434;17.056;2023-03-31T19:28:37;24.30;;;13.80;;
54368;SDS011;40266;52.434;17.056;2023-03-31T19:31:24;21.10;;;12.70;;
54368;SDS011;40266;52.434;17.056;2023-03-31T19:34:40;23.50;;;13.10;;
54368;SDS011;40266;52.434;17.056;2023-03-31T19:37:37;22.30;;;12.40;;
54368;SDS011;40266;52.434;17.056;2023-03-31T19:40:46;22.70;;;13.30;;
54368;SDS011;40266;52.434;17.056;2023-03-31T19:43:55;21.60;;;13.10;;
54368;SDS011;40266;52.434;17.056;2023-03-31T19:47:26;25.80;;;14.60;;
54368;SDS011;40266;52.434;17.056;2023-03-31T19:51:01;25.90;;;14.30;;
54368;SDS011;40266;52.434;17.056;2023-03-31T19:54:10;26.00;;;14.40;;
54368;SDS011;40266;52.434;17.056;2023-03-31T19:56:57;24.70;;;15.10;;
54368;SDS011;40266;52.434;17.056;2023-03-31T19:59:54;24.50;;;13.80;;
54368;SDS011;40266;52.434;17.056;2023-03-31T20:02:54;25.60;;;15.30;;
54368;SDS011;40266;52.434;17.056;2023-03-31T20:09:31;25.50;;;16.30;;
54368;SDS011;40266;52.434;17.056;2023-03-31T20:12:20;27.70;;;16.10;;
54368;SDS011;40266;52.434;17.056;2023-03-31T20:21:32;25.20;;;15.50;;
54368;SDS011;40266;52.434;17.056;2023-03-31T20:24:21;27.10;;;16.10;;
54368;SDS011;40266;52.434;17.056;2023-03-31T20:27:34;30.30;;;15.70;;
54368;SDS011;40266;52.434;17.056;2023-03-31T20:30:33;27.90;;;16.80;;
54368;SDS011;40266;52.434;17.056;2023-03-31T20:37:32;27.00;;;15.90;;
54368;SDS011;40266;52.434;17.056;2023-03-31T20:40:19;26.50;;;15.60;;
54368;SDS011;40266;52.434;17.056;2023-03-31T20:43:09;25.80;;;15.40;;
54368;SDS011;40266;52.434;17.056;2023-03-31T20:46:11;25.90;;;16.80;;
54368;SDS011;40266;52.434;17.056;2023-03-31T20:49:49;26.70;;;16.20;;
54368;SDS011;40266;52.434;17.056;2023-03-31T20:53:06;25.70;;;15.90;;
54368;SDS011;40266;52.434;17.056;2023-03-31T20:55:50;28.70;;;16.30;;
54368;SDS011;40266;52.434;17.056;2023-03-31T20:58:48;28.60;;;16.10;;
54368;SDS011;40266;52.434;17.056;2023-03-31T21:01:44;26.30;;;14.80;;
54368;SDS011;40266;52.434;17.056;2023-03-31T21:05:02;27.10;;;14.50;;
54368;SDS011;40266;52.434;17.056;2023-03-31T21:08:07;25.90;;;13.30;;
54368;SDS011;40266;52.434;17.056;2023-03-31T21:10:59;25.50;;;14.60;;
54368;SDS011;40266;52.434;17.056;2023-03-31T21:13:53;24.20;;;14.10;;
54368;SDS011;40266;52.434;17.056;2023-03-31T21:17:09;24.70;;;14.60;;
54368;SDS011;40266;52.434;17.056;2023-03-31T21:20:11;25.40;;;15.30;;
54368;SDS011;40266;52.434;17.056;2023-03-31T21:23:16;22.50;;;14.10;;
54368;SDS011;40266;52.434;17.056;2023-03-31T21:26:00;28.10;;;14.10;;
54368;SDS011;40266;52.434;17.056;2023-03-31T21:28:49;21.60;;;13.20;;
54368;SDS011;40266;52.434;17.056;2023-03-31T21:31:42;25.40;;;14.30;;
54368;SDS011;40266;52.434;17.056;2023-03-31T21:34:40;24.90;;;14.50;;
54368;SDS011;40266;52.434;17.056;2023-03-31T21:37:23;20.40;;;12.00;;
54368;SDS011;40266;52.434;17.056;2023-03-31T21:40:12;23.40;;;13.20;;
54368;SDS011;40266;52.434;17.056;2023-03-31T21:43:10;21.70;;;14.00;;
54368;SDS011;40266;52.434;17.056;2023-03-31T21:45:59;22.50;;;13.20;;
54368;SDS011;40266;52.434;17.056;2023-03-31T21:49:06;23.80;;;13.60;;
54368;SDS011;40266;52.434;17.056;2023-03-31T21:51:56;23.20;;;12.10;;
54368;SDS011;40266;52.434;17.056;2023-03-31T21:54:45;20.80;;;11.40;;
54368;SDS011;40266;52.434;17.056;2023-03-31T21:57:40;19.60;;;11.40;;
54368;SDS011;40266;52.434;17.056;2023-03-31T22:00:37;20.00;;;11.40;;
54368;SDS011;40266;52.434;17.056;2023-03-31T22:03:36;19.90;;;11.10;;
54368;SDS011;40266;52.434;17.056;2023-03-31T22:06:25;19.40;;;10.90;;